Extreme high temperature From: 16-07-2018 05:00 Until: 19:00 warning for: Extreme high temperature Level: Yellow info button
suomi:
Hellevaroitus: Lähivuorokauden aikana on odotettavissa tukalaa hellettä.

svenska:
Varning för värmebölja: Under det närmaste dygnet är den svåra hettan att vänta.

english:
Heat wave warning: Warm weather is expected during the coming 24 hours. 


Thunder radar more information blitzortung!


Löydät sääaseman tiedot myös:

European Weather Network

Finland Weather Exchange

Weather Underground

AWEKAS



Weather Underground säähistoriasivu

Päivittäin yhteenveto Helmikuu 12, 2017 Yksiköt:  Molemmat    Englantilaiset   Metriset
« Edellinen Päivä
Seuraava Päivä »
Päivittäin Viikoittain Kuukausittain Vuosittain Mukautettu
  Korkea: Matala: Keskiarvo:
Lämpötila: TemperatureC °F /  -17.8 °C -3.5 °F /  -19.7 °C -1.7 °F /  -18.7 °C
Kastepiste: DewpointC °F /  -17.8 °C -5.1 °F /  -20.6 °C -3.2 °F /  -19.6 °C
Kosteus: Humidity % 85 % 89 %
Tuulen nopeus: WindSpeedKMH mph /  0 km/h - 5.1 mph /  8.2 km/h
Tuulenpuuska: WindSpeedGustKMH mph /  0 km/h - -
Tuuli:- - SSW
Ilmanpaine: PressurehPa in /  0 hPa 1024.6 in /  34693 hPa -
Sade: 0.0 in /  0 mm    
Historical Graphs
 
 
Taulukkotiedot Helmikuu 12, 2017
Aika Lämpötila Kastepiste Ilmanpaine Tuuli Tuulen nopeus Tuulenpuuska Kosteus Sademäärä (tunneittain)
TemperatureC °F /  -17.8 °C DewpointC °F /  -17.8 °C PressurehPa in /  0 hPa Calm     Humidity % HourlyPrecipMM in /  0 mm
00:00 -2.5 °F /  -19.2 °C -3.6 °F /  -19.8 °C 1037.1 in /  35116.2 hPa SW 3.2 mph /  5.1 km/h 12.9 mph /  20.8 km/h 92 % 0.0 in /  0 mm
00:15 -2.5 °F /  -19.2 °C -3.8 °F /  -19.9 °C 1037.1 in /  35116.2 hPa SSW 4.8 mph /  7.7 km/h 14.5 mph /  23.3 km/h 91 % 0.0 in /  0 mm
00:30 -2.5 °F /  -19.2 °C -3.8 °F /  -19.9 °C 1037.1 in /  35116.2 hPa SSW 3.2 mph /  5.1 km/h 16.1 mph /  25.9 km/h 91 % 0.0 in /  0 mm
00:45 -2.5 °F /  -19.2 °C -3.8 °F /  -19.9 °C 1037.1 in /  35116.2 hPa SW 4.8 mph /  7.7 km/h 17.7 mph /  28.5 km/h 91 % 0.0 in /  0 mm
01:00 -2.5 °F /  -19.2 °C -3.6 °F /  -19.8 °C 1037.1 in /  35116.2 hPa SSW 4.8 mph /  7.7 km/h 19.3 mph /  31.1 km/h 92 % 0.0 in /  0 mm
01:15 -2.5 °F /  -19.2 °C -3.6 °F /  -19.8 °C 1036.8 in /  35106 hPa SSW 3.2 mph /  5.1 km/h 12.9 mph /  20.8 km/h 92 % 0.0 in /  0 mm
01:30 -2.5 °F /  -19.2 °C -3.8 °F /  -19.9 °C 1037.1 in /  35116.2 hPa SW 3.2 mph /  5.1 km/h 12.9 mph /  20.8 km/h 91 % 0.0 in /  0 mm
01:45 -2.4 °F /  -19.1 °C -3.6 °F /  -19.8 °C 1036.8 in /  35106 hPa SW 4.8 mph /  7.7 km/h 9.7 mph /  15.6 km/h 92 % 0.0 in /  0 mm
02:00 -2.4 °F /  -19.1 °C -3.7 °F /  -19.8 °C 1036.8 in /  35106 hPa SSW 3.2 mph /  5.1 km/h 16.1 mph /  25.9 km/h 91 % 0.0 in /  0 mm
02:15 -2.4 °F /  -19.1 °C -3.7 °F /  -19.8 °C 1036.8 in /  35106 hPa SSW 4.8 mph /  7.7 km/h 12.9 mph /  20.8 km/h 91 % 0.0 in /  0 mm
02:45 -2.3 °F /  -19.1 °C -3.6 °F /  -19.8 °C 1036.8 in /  35106 hPa SSW 3.2 mph /  5.1 km/h 12.9 mph /  20.8 km/h 91 % 0.0 in /  0 mm
03:00 -2.3 °F /  -19.1 °C -3.6 °F /  -19.8 °C 1036.5 in /  35095.9 hPa SSW 3.2 mph /  5.1 km/h 9.7 mph /  15.6 km/h 91 % 0.0 in /  0 mm
03:15 -2.3 °F /  -19.1 °C -3.6 °F /  -19.8 °C 1036.5 in /  35095.9 hPa SSW 3.2 mph /  5.1 km/h 8.0 mph /  12.9 km/h 91 % 0.0 in /  0 mm
03:30 -2.3 °F /  -19.1 °C -3.5 °F /  -19.7 °C 1036.1 in /  35082.3 hPa South 1.6 mph /  2.6 km/h 11.3 mph /  18.2 km/h 91 % 0.0 in /  0 mm
03:45 -2.3 °F /  -19.1 °C -3.5 °F /  -19.7 °C 1036.1 in /  35082.3 hPa SSW 1.6 mph /  2.6 km/h 9.7 mph /  15.6 km/h 91 % 0.0 in /  0 mm
04:00 -2.3 °F /  -19.1 °C -3.5 °F /  -19.7 °C 1035.8 in /  35072.2 hPa SSW 1.6 mph /  2.6 km/h 6.4 mph /  10.3 km/h 91 % 0.0 in /  0 mm
04:15 -2.3 °F /  -19.1 °C -3.5 °F /  -19.7 °C 1035.4 in /  35058.6 hPa SSW 1.6 mph /  2.6 km/h 8.0 mph /  12.9 km/h 91 % 0.0 in /  0 mm
04:30 -2.3 °F /  -19.1 °C -3.5 °F /  -19.7 °C 1035.4 in /  35058.6 hPa SSW 1.6 mph /  2.6 km/h 9.7 mph /  15.6 km/h 91 % 0.0 in /  0 mm
04:45 -2.2 °F /  -19 °C -3.5 °F /  -19.7 °C 1036.1 in /  35082.3 hPa SSW 1.6 mph /  2.6 km/h 9.7 mph /  15.6 km/h 91 % 0.0 in /  0 mm
05:00 -2.2 °F /  -19 °C -3.4 °F /  -19.7 °C 1036.1 in /  35082.3 hPa SSW 1.6 mph /  2.6 km/h 14.5 mph /  23.3 km/h 91 % 0.0 in /  0 mm
05:15 -2.1 °F /  -18.9 °C -3.4 °F /  -19.7 °C 1035.8 in /  35072.2 hPa SSW 1.6 mph /  2.6 km/h 6.4 mph /  10.3 km/h 91 % 0.0 in /  0 mm
05:30 -2.1 °F /  -18.9 °C -3.5 °F /  -19.7 °C 1035.8 in /  35072.2 hPa SW 3.2 mph /  5.1 km/h 9.7 mph /  15.6 km/h 90 % 0.0 in /  0 mm
05:45 -2.0 °F /  -18.9 °C -3.4 °F /  -19.7 °C 1035.8 in /  35072.2 hPa SSW 3.2 mph /  5.1 km/h 8.0 mph /  12.9 km/h 90 % 0.0 in /  0 mm
06:00 -2.1 °F /  -18.9 °C -3.7 °F /  -19.8 °C 1035.4 in /  35058.6 hPa SSW 3.2 mph /  5.1 km/h 14.5 mph /  23.3 km/h 89 % 0.0 in /  0 mm
06:30 -2.4 °F /  -19.1 °C -4.1 °F /  -20.1 °C 1035.1 in /  35048.5 hPa SSW 3.2 mph /  5.1 km/h 11.3 mph /  18.2 km/h 88 % 0.0 in /  0 mm
06:45 -2.4 °F /  -19.1 °C -4.0 °F /  -20 °C 1035.1 in /  35048.5 hPa SW 1.6 mph /  2.6 km/h 9.7 mph /  15.6 km/h 89 % 0.0 in /  0 mm
07:00 -2.4 °F /  -19.1 °C -4.0 °F /  -20 °C 1035.1 in /  35048.5 hPa SSW 1.6 mph /  2.6 km/h 9.7 mph /  15.6 km/h 89 % 0.0 in /  0 mm
07:15 -2.5 °F /  -19.2 °C -4.1 °F /  -20.1 °C 1035.1 in /  35048.5 hPa SSW 3.2 mph /  5.1 km/h 8.0 mph /  12.9 km/h 89 % 0.0 in /  0 mm
07:30 -2.5 °F /  -19.2 °C -4.1 °F /  -20.1 °C 1035.1 in /  35048.5 hPa SSW 3.2 mph /  5.1 km/h 14.5 mph /  23.3 km/h 89 % 0.0 in /  0 mm
07:45 -2.6 °F /  -19.2 °C -4.1 °F /  -20.1 °C 1035.1 in /  35048.5 hPa SW 1.6 mph /  2.6 km/h 9.7 mph /  15.6 km/h 89 % 0.0 in /  0 mm
08:00 -2.7 °F /  -19.3 °C -4.2 °F /  -20.1 °C 1035.1 in /  35048.5 hPa SW 3.2 mph /  5.1 km/h 8.0 mph /  12.9 km/h 89 % 0.0 in /  0 mm
08:15 -2.7 °F /  -19.3 °C -4.3 °F /  -20.2 °C 1035.1 in /  35048.5 hPa SSW 1.6 mph /  2.6 km/h 9.7 mph /  15.6 km/h 89 % 0.0 in /  0 mm
08:30 -2.8 °F /  -19.3 °C -4.3 °F /  -20.2 °C 1035.1 in /  35048.5 hPa SW 4.8 mph /  7.7 km/h 14.5 mph /  23.3 km/h 89 % 0.0 in /  0 mm
08:45 -2.8 °F /  -19.3 °C -4.4 °F /  -20.2 °C 1035.1 in /  35048.5 hPa SSW 4.8 mph /  7.7 km/h 17.7 mph /  28.5 km/h 89 % 0.0 in /  0 mm
09:00 -2.9 °F /  -19.4 °C -4.4 °F /  -20.2 °C 1035.1 in /  35048.5 hPa SW 3.2 mph /  5.1 km/h 12.9 mph /  20.8 km/h 89 % 0.0 in /  0 mm
09:15 -3.0 °F /  -19.4 °C -4.6 °F /  -20.3 °C 1034.8 in /  35038.3 hPa SSW 4.8 mph /  7.7 km/h 12.9 mph /  20.8 km/h 89 % 0.0 in /  0 mm
09:30 -3.2 °F /  -19.6 °C -4.7 °F /  -20.4 °C 1034.8 in /  35038.3 hPa SSW 4.8 mph /  7.7 km/h 14.5 mph /  23.3 km/h 89 % 0.0 in /  0 mm
09:45 -3.3 °F /  -19.6 °C -4.8 °F /  -20.4 °C 1034.8 in /  35038.3 hPa SW 3.2 mph /  5.1 km/h 9.7 mph /  15.6 km/h 89 % 0.0 in /  0 mm
10:00 -3.4 °F /  -19.7 °C -4.9 °F /  -20.5 °C 1034.8 in /  35038.3 hPa SW 3.2 mph /  5.1 km/h 9.7 mph /  15.6 km/h 89 % 0.0 in /  0 mm
10:15 -3.5 °F /  -19.7 °C -5.1 °F /  -20.6 °C 1034.8 in /  35038.3 hPa SSW 1.6 mph /  2.6 km/h 9.7 mph /  15.6 km/h 89 % 0.0 in /  0 mm
10:30 -3.5 °F /  -19.7 °C -5.1 °F /  -20.6 °C 1034.8 in /  35038.3 hPa SW 1.6 mph /  2.6 km/h 8.0 mph /  12.9 km/h 89 % 0.0 in /  0 mm
10:45 -3.4 °F /  -19.7 °C -4.8 °F /  -20.4 °C 1034.8 in /  35038.3 hPa SSW 4.8 mph /  7.7 km/h 11.3 mph /  18.2 km/h 90 % 0.0 in /  0 mm
11:00 -3.2 °F /  -19.6 °C -4.6 °F /  -20.3 °C 1034.4 in /  35024.8 hPa SSW 4.8 mph /  7.7 km/h 14.5 mph /  23.3 km/h 90 % 0.0 in /  0 mm
11:15 -2.8 °F /  -19.3 °C -4.4 °F /  -20.2 °C 1034.4 in /  35024.8 hPa SSW 6.4 mph /  10.3 km/h 14.5 mph /  23.3 km/h 89 % 0.0 in /  0 mm
11:30 -2.6 °F /  -19.2 °C -4.1 °F /  -20.1 °C 1034.1 in /  35014.6 hPa SSW 4.8 mph /  7.7 km/h 12.9 mph /  20.8 km/h 89 % 0.0 in /  0 mm
11:45 -2.2 °F /  -19 °C -3.9 °F /  -19.9 °C 1034.4 in /  35024.8 hPa SSW 4.8 mph /  7.7 km/h 12.9 mph /  20.8 km/h 88 % 0.0 in /  0 mm
12:15 -1.7 °F /  -18.7 °C -3.9 °F /  -19.9 °C 1034.1 in /  35014.6 hPa SSW 4.8 mph /  7.7 km/h 14.5 mph /  23.3 km/h 85 % 0.0 in /  0 mm
12:30 -1.6 °F /  -18.7 °C -3.7 °F /  -19.8 °C 1033.7 in /  35001.1 hPa SSW 4.8 mph /  7.7 km/h 11.3 mph /  18.2 km/h 85 % 0.0 in /  0 mm
12:45 -1.4 °F /  -18.6 °C -3.6 °F /  -19.8 °C 1033.7 in /  35001.1 hPa SW 3.2 mph /  5.1 km/h 11.3 mph /  18.2 km/h 85 % 0.0 in /  0 mm
13:00 -1.5 °F /  -18.6 °C -3.7 °F /  -19.8 °C 1033.7 in /  35001.1 hPa SW 4.8 mph /  7.7 km/h 19.3 mph /  31.1 km/h 85 % 0.0 in /  0 mm
13:15 -1.5 °F /  -18.6 °C -3.5 °F /  -19.7 °C 1033.7 in /  35001.1 hPa SSW 4.8 mph /  7.7 km/h 16.1 mph /  25.9 km/h 86 % 0.0 in /  0 mm
13:30 -1.5 °F /  -18.6 °C -3.5 °F /  -19.7 °C 1033.4 in /  34990.9 hPa SSW 4.8 mph /  7.7 km/h 11.3 mph /  18.2 km/h 86 % 0.0 in /  0 mm
13:45 -1.5 °F /  -18.6 °C -3.4 °F /  -19.7 °C 1033.1 in /  34980.8 hPa SSW 6.4 mph /  10.3 km/h 19.3 mph /  31.1 km/h 87 % 0.0 in /  0 mm
14:00 -1.5 °F /  -18.6 °C -3.2 °F /  -19.6 °C 1032.7 in /  34967.2 hPa SSW 8.0 mph /  12.9 km/h 19.3 mph /  31.1 km/h 88 % 0.0 in /  0 mm
14:15 -1.4 °F /  -18.6 °C -3.2 °F /  -19.6 °C 1032.4 in /  34957.1 hPa SSW 6.4 mph /  10.3 km/h 14.5 mph /  23.3 km/h 88 % 0.0 in /  0 mm
14:30 -1.4 °F /  -18.6 °C -3.2 °F /  -19.6 °C 1032.7 in /  34967.2 hPa SW 6.4 mph /  10.3 km/h 11.3 mph /  18.2 km/h 88 % 0.0 in /  0 mm
15:00 -1.3 °F /  -18.5 °C -3.1 °F /  -19.5 °C 1032.1 in /  34946.9 hPa SSW 4.8 mph /  7.7 km/h 16.1 mph /  25.9 km/h 88 % 0.0 in /  0 mm
15:15 -1.3 °F /  -18.5 °C -3.1 °F /  -19.5 °C 1032.1 in /  34946.9 hPa SSW 6.4 mph /  10.3 km/h 11.3 mph /  18.2 km/h 88 % 0.0 in /  0 mm
15:30 -1.3 °F /  -18.5 °C -2.9 °F /  -19.4 °C 1032.1 in /  34946.9 hPa SSW 6.4 mph /  10.3 km/h 14.5 mph /  23.3 km/h 89 % 0.0 in /  0 mm
15:45 -1.3 °F /  -18.5 °C -2.9 °F /  -19.4 °C 1031.7 in /  34933.4 hPa SSW 6.4 mph /  10.3 km/h 16.1 mph /  25.9 km/h 89 % 0.0 in /  0 mm
16:00 -1.3 °F /  -18.5 °C -2.9 °F /  -19.4 °C 1032.1 in /  34946.9 hPa SSW 4.8 mph /  7.7 km/h 16.1 mph /  25.9 km/h 89 % 0.0 in /  0 mm
16:15 -1.3 °F /  -18.5 °C -2.9 °F /  -19.4 °C 1031.7 in /  34933.4 hPa SSW 6.4 mph /  10.3 km/h 12.9 mph /  20.8 km/h 89 % 0.0 in /  0 mm
16:30 -1.2 °F /  -18.4 °C -2.7 °F /  -19.3 °C 1031.7 in /  34933.4 hPa SSW 8.0 mph /  12.9 km/h 17.7 mph /  28.5 km/h 90 % 0.0 in /  0 mm
16:45 -1.2 °F /  -18.4 °C -2.7 °F /  -19.3 °C 1031.7 in /  34933.4 hPa SSW 4.8 mph /  7.7 km/h 16.1 mph /  25.9 km/h 90 % 0.0 in /  0 mm
17:00 -1.2 °F /  -18.4 °C -2.5 °F /  -19.2 °C 1031.4 in /  34923.2 hPa SSW 6.4 mph /  10.3 km/h 16.1 mph /  25.9 km/h 91 % 0.0 in /  0 mm
17:15 -1.2 °F /  -18.4 °C -2.4 °F /  -19.1 °C 1031.0 in /  34909.7 hPa SSW 6.4 mph /  10.3 km/h 12.9 mph /  20.8 km/h 91 % 0.0 in /  0 mm
17:30 -1.1 °F /  -18.4 °C -2.2 °F /  -19 °C 1030.7 in /  34899.5 hPa SSW 8.0 mph /  12.9 km/h 17.7 mph /  28.5 km/h 92 % 0.0 in /  0 mm
17:45 -1.1 °F /  -18.4 °C -2.2 °F /  -19 °C 1030.4 in /  34889.3 hPa SSW 9.7 mph /  15.6 km/h 20.9 mph /  33.6 km/h 92 % 0.0 in /  0 mm
18:00 -1.0 °F /  -18.3 °C -2.1 °F /  -18.9 °C 1030.4 in /  34889.3 hPa SSW 6.4 mph /  10.3 km/h 14.5 mph /  23.3 km/h 92 % 0.0 in /  0 mm
18:15 -0.9 °F /  -18.3 °C -2.1 °F /  -18.9 °C 1030.4 in /  34889.3 hPa SSW 6.4 mph /  10.3 km/h 17.7 mph /  28.5 km/h 92 % 0.0 in /  0 mm
18:30 -0.9 °F /  -18.3 °C -2.0 °F /  -18.9 °C 1030.0 in /  34875.8 hPa SW 6.4 mph /  10.3 km/h 14.5 mph /  23.3 km/h 92 % 0.0 in /  0 mm
18:45 -0.8 °F /  -18.2 °C -2.0 °F /  -18.9 °C 1029.7 in /  34865.6 hPa SSW 8.0 mph /  12.9 km/h 19.3 mph /  31.1 km/h 92 % 0.0 in /  0 mm
19:00 -0.8 °F /  -18.2 °C -1.9 °F /  -18.8 °C 1029.3 in /  34852.1 hPa SSW 8.0 mph /  12.9 km/h 17.7 mph /  28.5 km/h 92 % 0.0 in /  0 mm
19:15 -0.7 °F /  -18.2 °C -1.9 °F /  -18.8 °C 1029.0 in /  34841.9 hPa SSW 6.4 mph /  10.3 km/h 16.1 mph /  25.9 km/h 92 % 0.0 in /  0 mm
19:30 -0.7 °F /  -18.2 °C -2.0 °F /  -18.9 °C 1028.7 in /  34831.8 hPa SSW 8.0 mph /  12.9 km/h 19.3 mph /  31.1 km/h 91 % 0.0 in /  0 mm
19:45 -0.6 °F /  -18.1 °C -2.0 °F /  -18.9 °C 1028.7 in /  34831.8 hPa SSW 6.4 mph /  10.3 km/h 17.7 mph /  28.5 km/h 90 % 0.0 in /  0 mm
20:00 -0.4 °F /  -18 °C -2.2 °F /  -19 °C 1028.3 in /  34818.2 hPa SSW 8.0 mph /  12.9 km/h 20.9 mph /  33.6 km/h 88 % 0.0 in /  0 mm
20:15 -0.4 °F /  -18 °C -2.3 °F /  -19.1 °C 1028.0 in /  34808.1 hPa SSW 8.0 mph /  12.9 km/h 17.7 mph /  28.5 km/h 87 % 0.0 in /  0 mm
20:30 -0.3 °F /  -17.9 °C -2.3 °F /  -19.1 °C 1027.7 in /  34797.9 hPa SSW 8.0 mph /  12.9 km/h 27.4 mph /  44.1 km/h 86 % 0.0 in /  0 mm
20:45 -0.3 °F /  -17.9 °C -2.3 °F /  -19.1 °C 1027.3 in /  34784.4 hPa SSW 8.0 mph /  12.9 km/h 20.9 mph /  33.6 km/h 86 % 0.0 in /  0 mm
21:00 -0.3 °F /  -17.9 °C -2.2 °F /  -19 °C 1027.0 in /  34774.2 hPa SSW 6.4 mph /  10.3 km/h 16.1 mph /  25.9 km/h 87 % 0.0 in /  0 mm
21:15 -0.3 °F /  -17.9 °C -2.2 °F /  -19 °C 1027.0 in /  34774.2 hPa SW 8.0 mph /  12.9 km/h 25.7 mph /  41.4 km/h 87 % 0.0 in /  0 mm
21:30 -0.2 °F /  -17.9 °C -1.8 °F /  -18.8 °C 1026.6 in /  34760.7 hPa SSW 9.7 mph /  15.6 km/h 22.5 mph /  36.2 km/h 89 % 0.0 in /  0 mm
21:45 -0.2 °F /  -17.9 °C -1.8 °F /  -18.8 °C 1026.6 in /  34760.7 hPa SSW 9.7 mph /  15.6 km/h 30.6 mph /  49.2 km/h 89 % 0.0 in /  0 mm
22:00 -0.2 °F /  -17.9 °C -1.8 °F /  -18.8 °C 1026.0 in /  34740.4 hPa SSW 9.7 mph /  15.6 km/h 24.1 mph /  38.8 km/h 89 % 0.0 in /  0 mm
22:15 -0.2 °F /  -17.9 °C -1.8 °F /  -18.8 °C 1026.0 in /  34740.4 hPa SSW 9.7 mph /  15.6 km/h 24.1 mph /  38.8 km/h 89 % 0.0 in /  0 mm
22:30 -0.1 °F /  -17.8 °C -1.6 °F /  -18.7 °C 1025.6 in /  34726.8 hPa SSW 8.0 mph /  12.9 km/h 19.3 mph /  31.1 km/h 90 % 0.0 in /  0 mm
22:45 0.0 °F /  -17.8 °C -1.3 °F /  -18.5 °C 1025.6 in /  34726.8 hPa SSW 8.0 mph /  12.9 km/h 19.3 mph /  31.1 km/h 91 % 0.0 in /  0 mm
23:00 0.1 °F /  -17.7 °C -1.2 °F /  -18.4 °C 1025.3 in /  34716.7 hPa SSW 8.0 mph /  12.9 km/h 22.5 mph /  36.2 km/h 91 % 0.0 in /  0 mm
23:15 0.2 °F /  -17.7 °C -1.1 °F /  -18.4 °C 1024.9 in /  34703.1 hPa SSW 8.0 mph /  12.9 km/h 25.7 mph /  41.4 km/h 91 % 0.0 in /  0 mm
23:30 0.2 °F /  -17.7 °C -1.1 °F /  -18.4 °C 1024.6 in /  34693 hPa SSW 8.0 mph /  12.9 km/h 20.9 mph /  33.6 km/h 91 % 0.0 in /  0 mm
23:45 0.3 °F /  -17.6 °C -1.0 °F /  -18.3 °C 1024.6 in /  34693 hPa SSW 8.0 mph /  12.9 km/h 17.7 mph /  28.5 km/h 91 % 0.0 in /  0 mm
Esan sääasema
Terveisin Weather Underground - 2.75 mb

Alkuperäinen skripti  Jim McMurry - jmcmurry@mwt.net Sovitettu myös templatelle  Wim van der Kuil - Leuven-Template.eu

Laitteet joita käytämme:

Sääasema
Davis VP2

Sääasemaohjelma
Cumulus

Sääaseman tietokone
Asus EeePC

Palveluntarjoaja
Suncomet

Davis VP2

Cumulus

Asus EeePC

Suncomet